createdAt,value
2018-02-25T00:00:37.737Z,-2.10
2018-02-25T00:03:05.456Z,-2.10
2018-02-25T00:05:33.268Z,-2.10
2018-02-25T00:08:01.135Z,-2.20
2018-02-25T00:10:29.002Z,-2.20
2018-02-25T00:12:56.869Z,-2.20
2018-02-25T00:15:24.737Z,-2.30
2018-02-25T00:17:52.604Z,-2.30
2018-02-25T00:20:20.473Z,-2.30
2018-02-25T00:22:48.338Z,-2.30
2018-02-25T00:25:16.206Z,-2.30
2018-02-25T00:27:44.175Z,-2.30
2018-02-25T00:30:11.895Z,-2.20
2018-02-25T00:35:13.562Z,-2.30
2018-02-25T00:37:41.276Z,-2.30
2018-02-25T00:40:08.988Z,-2.40
2018-02-25T00:42:37.478Z,-2.40
2018-02-25T00:45:05.242Z,-2.50
2018-02-25T00:47:32.971Z,-2.50
2018-02-25T00:50:00.818Z,-2.50
2018-02-25T00:52:28.686Z,-2.50
2018-02-25T00:54:56.553Z,-2.60
2018-02-25T00:57:24.420Z,-2.50
2018-02-25T00:59:52.290Z,-2.60
2018-02-25T01:02:20.155Z,-2.60
2018-02-25T01:04:48.022Z,-2.70
2018-02-25T01:07:15.889Z,-2.70
2018-02-25T01:09:43.757Z,-2.70
2018-02-25T01:12:11.624Z,-2.60
2018-02-25T01:14:39.491Z,-2.70
2018-02-25T01:17:07.359Z,-2.70
2018-02-25T01:19:35.226Z,-2.70
2018-02-25T01:22:03.093Z,-2.70
2018-02-25T01:24:30.961Z,-2.80
2018-02-25T01:26:58.828Z,-2.90
2018-02-25T01:29:26.694Z,-2.90
2018-02-25T01:31:54.562Z,-2.90
2018-02-25T01:34:22.429Z,-2.90
2018-02-25T01:36:50.302Z,-2.90
2018-02-25T01:39:18.164Z,-2.90
2018-02-25T01:41:46.033Z,-2.90
2018-02-25T01:44:13.900Z,-3.00
2018-02-25T01:46:41.766Z,-3.00
2018-02-25T01:49:09.634Z,-3.00
2018-02-25T01:51:37.500Z,-3.00
2018-02-25T01:54:05.218Z,-3.10
2018-02-25T01:56:32.942Z,-3.00
2018-02-25T01:59:00.657Z,-3.00
2018-02-25T02:01:28.459Z,-3.10
2018-02-25T02:03:56.325Z,-3.10
2018-02-25T02:06:24.194Z,-3.10
2018-02-25T02:08:52.060Z,-3.20
2018-02-25T02:11:19.930Z,-3.20
2018-02-25T02:13:47.795Z,-3.20
2018-02-25T02:16:15.663Z,-3.30
2018-02-25T02:18:43.529Z,-3.20
2018-02-25T02:21:11.399Z,-3.20
2018-02-25T02:23:39.266Z,-3.20
2018-02-25T02:26:07.132Z,-3.30
2018-02-25T02:28:34.995Z,-3.30
2018-02-25T02:31:02.768Z,-3.30
2018-02-25T02:33:30.632Z,-3.40
2018-02-25T02:35:58.385Z,-3.40
2018-02-25T02:38:26.263Z,-3.50
2018-02-25T02:40:54.130Z,-3.40
2018-02-25T02:43:22.000Z,-3.50
2018-02-25T02:45:49.864Z,-3.50
2018-02-25T02:48:17.733Z,-3.50
2018-02-25T02:50:45.601Z,-3.50
2018-02-25T02:53:13.468Z,-3.50
2018-02-25T02:55:41.340Z,-3.60
2018-02-25T02:58:09.210Z,-3.60
2018-02-25T03:00:37.069Z,-3.60
2018-02-25T03:03:04.938Z,-3.60
2018-02-25T03:05:32.807Z,-3.60
2018-02-25T03:08:00.673Z,-3.70
2018-02-25T03:10:28.539Z,-3.70
2018-02-25T03:12:56.406Z,-3.70
2018-02-25T03:15:24.276Z,-3.70
2018-02-25T03:17:52.140Z,-3.70
2018-02-25T03:20:20.008Z,-3.80
2018-02-25T03:22:47.875Z,-3.80
2018-02-25T03:25:15.743Z,-3.80
2018-02-25T03:27:43.613Z,-3.90
2018-02-25T03:30:11.479Z,-4.00
2018-02-25T03:32:39.344Z,-4.00
2018-02-25T03:35:07.210Z,-3.90
2018-02-25T03:37:35.078Z,-4.00
2018-02-25T03:40:02.947Z,-4.00
2018-02-25T03:42:30.815Z,-4.00
2018-02-25T03:44:58.681Z,-3.90
2018-02-25T03:47:26.552Z,-4.00
2018-02-25T03:49:54.416Z,-4.00
2018-02-25T03:52:22.283Z,-4.00
2018-02-25T03:54:50.150Z,-4.00
2018-02-25T03:57:18.018Z,-4.00
2018-02-25T03:59:45.884Z,-4.00
2018-02-25T04:02:13.651Z,-4.10
2018-02-25T04:04:41.516Z,-4.10
2018-02-25T04:07:09.385Z,-4.10
2018-02-25T04:09:37.125Z,-4.10
2018-02-25T04:12:05.017Z,-4.20
2018-02-25T04:14:32.884Z,-4.30
2018-02-25T04:17:00.752Z,-4.20
2018-02-25T04:19:28.618Z,-4.20
2018-02-25T04:21:56.486Z,-4.20
2018-02-25T04:24:24.353Z,-4.30
2018-02-25T04:26:52.221Z,-4.30
2018-02-25T04:29:20.093Z,-4.30
2018-02-25T04:31:47.959Z,-4.20
2018-02-25T04:34:15.823Z,-4.40
2018-02-25T04:36:43.690Z,-4.30
2018-02-25T04:39:11.561Z,-4.30
2018-02-25T04:41:39.425Z,-4.40
2018-02-25T04:44:07.291Z,-4.40
2018-02-25T04:46:35.158Z,-4.40
2018-02-25T04:49:03.075Z,-4.40
2018-02-25T04:51:31.713Z,-4.40
2018-02-25T04:53:59.580Z,-4.40
2018-02-25T04:56:27.448Z,-4.50
2018-02-25T04:58:55.314Z,-4.40
2018-02-25T05:01:23.182Z,-4.40
2018-02-25T05:03:51.049Z,-4.40
2018-02-25T05:06:18.917Z,-4.50
2018-02-25T05:08:46.784Z,-4.40
2018-02-25T05:11:14.652Z,-4.30
2018-02-25T05:13:42.556Z,-4.40
2018-02-25T05:16:11.207Z,-4.40
2018-02-25T05:18:39.072Z,-4.40
2018-02-25T05:21:06.940Z,-4.30
2018-02-25T05:23:34.807Z,-4.20
2018-02-25T05:26:02.674Z,-4.20
2018-02-25T05:28:30.540Z,-4.40
2018-02-25T05:30:58.410Z,-4.40
2018-02-25T05:33:26.276Z,-4.40
2018-02-25T05:35:54.144Z,-4.30
2018-02-25T05:38:22.012Z,-4.20
2018-02-25T05:40:49.878Z,-4.20
2018-02-25T05:43:17.746Z,-4.20
2018-02-25T05:45:45.613Z,-4.20
2018-02-25T05:48:13.481Z,-4.20
2018-02-25T05:50:41.348Z,-4.30
2018-02-25T05:53:09.214Z,-4.20
2018-02-25T05:55:37.082Z,-4.20
2018-02-25T05:58:04.949Z,-4.20
2018-02-25T06:00:32.824Z,-4.20
2018-02-25T06:03:00.683Z,-4.40
2018-02-25T06:05:28.551Z,-4.50
2018-02-25T06:07:56.419Z,-4.40
2018-02-25T06:10:24.287Z,-4.30
2018-02-25T06:12:55.215Z,-4.30
2018-02-25T06:15:25.491Z,-4.40
2018-02-25T06:17:56.206Z,-4.50
2018-02-25T06:20:24.255Z,-4.50
2018-02-25T06:22:54.810Z,-4.50
2018-02-25T06:25:25.654Z,-4.50
2018-02-25T06:28:02.582Z,-4.50
2018-02-25T06:30:30.470Z,-4.50
2018-02-25T06:32:58.338Z,-4.50
2018-02-25T06:35:26.206Z,-4.50
2018-02-25T06:37:54.075Z,-4.50
2018-02-25T06:40:21.938Z,-4.50
2018-02-25T06:42:49.806Z,-4.50
2018-02-25T06:45:17.674Z,-4.60
2018-02-25T06:47:45.544Z,-4.40
2018-02-25T06:50:13.408Z,-4.10
2018-02-25T06:52:41.382Z,-3.80
2018-02-25T06:55:09.119Z,-3.50
2018-02-25T06:57:36.874Z,-2.80
2018-02-25T07:00:04.662Z,-2.50
2018-02-25T07:02:32.539Z,-2.30
2018-02-25T07:05:00.268Z,-2.10
2018-02-25T07:10:26.162Z,-0.60
2018-02-25T07:12:56.833Z,-0.70
2018-02-25T07:15:26.146Z,-1.00
2018-02-25T07:17:53.948Z,-1.20
2018-02-25T07:20:22.735Z,-1.30
2018-02-25T07:22:50.603Z,-2.00
2018-02-25T07:25:18.332Z,-2.30
2018-02-25T07:27:46.177Z,-2.50
2018-02-25T07:30:14.853Z,-2.50
2018-02-25T07:32:43.916Z,-2.10
2018-02-25T07:35:11.787Z,-2.20
2018-02-25T07:37:39.558Z,-1.50
2018-02-25T07:40:07.298Z,-1.30
2018-02-25T07:42:35.006Z,-1.10
2018-02-25T07:45:03.514Z,-1.80
2018-02-25T07:47:31.236Z,-1.70
2018-02-25T07:49:58.998Z,-2.10
2018-02-25T07:52:26.718Z,-2.30
2018-02-25T07:54:54.436Z,-2.00
2018-02-25T07:57:22.153Z,-2.00
2018-02-25T07:59:49.866Z,-2.20
2018-02-25T08:02:17.602Z,-2.50
2018-02-25T08:04:45.310Z,-2.50
2018-02-25T08:07:13.786Z,-2.60
2018-02-25T08:09:42.315Z,-2.30
2018-02-25T08:12:10.027Z,-2.30
2018-02-25T08:14:38.498Z,-2.00
2018-02-25T08:17:06.232Z,-2.00
2018-02-25T08:19:34.213Z,-2.30
2018-02-25T08:22:01.926Z,-2.50
2018-02-25T08:24:29.634Z,-2.30
2018-02-25T08:26:57.357Z,-1.80
2018-02-25T08:29:25.138Z,-1.40
2018-02-25T08:31:52.894Z,-1.10
2018-02-25T08:34:20.606Z,-0.50
2018-02-25T08:36:48.319Z,0.40
2018-02-25T08:39:16.038Z,0.80
2018-02-25T08:41:43.738Z,1.40
2018-02-25T08:44:12.208Z,2.30
2018-02-25T08:46:40.693Z,2.30
2018-02-25T08:49:09.181Z,2.90
2018-02-25T08:51:37.650Z,4.60
2018-02-25T08:54:06.121Z,5.50
2018-02-25T08:56:33.818Z,5.40
2018-02-25T08:59:01.526Z,4.10
2018-02-25T09:01:29.231Z,3.90
2018-02-25T09:03:57.706Z,4.60
2018-02-25T09:06:26.170Z,5.70
2018-02-25T09:08:53.886Z,5.60
2018-02-25T09:11:21.602Z,7.10
2018-02-25T09:13:49.306Z,7.30
2018-02-25T09:16:17.005Z,6.80
2018-02-25T09:18:44.715Z,8.10
2018-02-25T09:21:12.417Z,8.90
2018-02-25T09:23:40.129Z,7.20
2018-02-25T09:26:08.602Z,4.40
2018-02-25T09:28:36.368Z,4.40
2018-02-25T09:31:04.854Z,6.30
2018-02-25T09:33:33.342Z,8.30
2018-02-25T09:36:01.834Z,10.10
2018-02-25T09:38:30.317Z,10.90
2018-02-25T09:40:58.805Z,10.70
2018-02-25T09:43:26.543Z,10.70
2018-02-25T09:45:54.255Z,8.60
2018-02-25T09:48:21.982Z,8.60
2018-02-25T09:50:50.466Z,11.40
2018-02-25T09:53:18.948Z,13.30
2018-02-25T09:55:47.429Z,12.60
2018-02-25T09:58:15.915Z,10.10
2018-02-25T10:00:44.401Z,8.60
2018-02-25T10:03:12.909Z,7.80
2018-02-25T10:05:40.664Z,7.80
2018-02-25T10:08:08.398Z,8.10
2018-02-25T10:10:36.901Z,10.40
2018-02-25T10:13:04.643Z,10.40
2018-02-25T10:15:33.129Z,7.30
2018-02-25T10:18:01.618Z,8.80
2018-02-25T10:20:30.109Z,10.10
2018-02-25T10:22:57.858Z,10.10
2018-02-25T10:25:25.627Z,10.80
2018-02-25T10:27:54.117Z,10.20
2018-02-25T10:30:21.847Z,10.20
2018-02-25T10:32:49.609Z,9.30
2018-02-25T10:35:17.342Z,6.50
2018-02-25T10:37:45.050Z,7.20
2018-02-25T10:40:12.763Z,8.70
2018-02-25T10:42:40.502Z,9.50
2018-02-25T10:45:08.230Z,10.20
2018-02-25T10:47:35.959Z,10.80
2018-02-25T10:50:03.746Z,11.20
2018-02-25T10:52:31.466Z,11.00
2018-02-25T10:54:59.194Z,11.10
2018-02-25T10:57:26.918Z,10.00
2018-02-25T10:59:54.622Z,7.40
2018-02-25T11:02:22.322Z,7.70
2018-02-25T11:04:50.037Z,8.30
2018-02-25T11:07:17.751Z,8.90
2018-02-25T11:09:45.470Z,8.30
2018-02-25T11:12:13.181Z,8.30
2018-02-25T11:14:40.888Z,8.70
2018-02-25T11:17:08.594Z,9.30
2018-02-25T11:19:36.307Z,8.00
2018-02-25T11:22:04.035Z,8.10
2018-02-25T11:24:31.741Z,8.00
2018-02-25T11:26:59.482Z,8.50
2018-02-25T11:29:27.186Z,9.00
2018-02-25T11:31:54.901Z,8.70
2018-02-25T11:34:23.308Z,8.70
2018-02-25T11:36:52.957Z,7.60
2018-02-25T11:39:20.734Z,7.60
2018-02-25T11:41:48.456Z,6.10
2018-02-25T11:44:19.318Z,7.00
2018-02-25T11:46:47.802Z,7.00
2018-02-25T11:49:16.289Z,5.90
2018-02-25T11:51:44.814Z,5.90
2018-02-25T11:54:12.551Z,5.90
2018-02-25T11:56:40.262Z,6.60
2018-02-25T11:59:08.031Z,7.20
2018-02-25T12:01:35.851Z,7.80
2018-02-25T12:04:03.566Z,7.20
2018-02-25T12:06:32.108Z,4.40
2018-02-25T12:09:00.289Z,5.20
2018-02-25T12:11:27.998Z,6.20
2018-02-25T12:13:55.706Z,7.00
2018-02-25T12:16:23.410Z,7.10
2018-02-25T12:18:51.116Z,7.50
2018-02-25T12:21:18.845Z,8.00
2018-02-25T12:23:46.843Z,8.70
2018-02-25T12:26:15.486Z,8.70
2018-02-25T12:28:43.207Z,8.70
2018-02-25T12:31:10.918Z,9.20
2018-02-25T12:33:38.658Z,8.90
2018-02-25T12:36:06.382Z,9.00
2018-02-25T12:38:35.027Z,9.30
2018-02-25T12:41:02.925Z,9.30
2018-02-25T12:43:31.445Z,9.10
2018-02-25T12:45:59.194Z,9.10
2018-02-25T12:48:27.007Z,9.40
2018-02-25T12:50:54.885Z,7.90
2018-02-25T12:53:22.602Z,6.10
2018-02-25T12:55:50.326Z,6.80
2018-02-25T12:58:18.090Z,7.40
2018-02-25T13:00:45.820Z,6.80
2018-02-25T13:03:13.541Z,6.90
2018-02-25T13:05:42.038Z,8.00
2018-02-25T13:08:09.762Z,8.00
2018-02-25T13:10:37.570Z,8.20
2018-02-25T13:13:05.299Z,8.60
2018-02-25T13:15:33.026Z,8.90
2018-02-25T13:18:00.753Z,8.60
2018-02-25T13:20:28.474Z,8.70
2018-02-25T13:22:56.210Z,9.00
2018-02-25T13:25:23.924Z,9.10
2018-02-25T13:27:52.418Z,8.80
2018-02-25T13:30:20.907Z,8.70
2018-02-25T13:32:48.629Z,8.70
2018-02-25T13:35:16.329Z,9.00
2018-02-25T13:37:44.042Z,9.10
2018-02-25T13:40:12.531Z,8.60
2018-02-25T13:42:40.274Z,8.60
2018-02-25T13:45:07.974Z,8.70
2018-02-25T13:47:35.735Z,8.80
2018-02-25T13:50:04.178Z,8.70
2018-02-25T13:52:32.466Z,7.30
2018-02-25T13:55:04.242Z,7.60
2018-02-25T13:57:32.114Z,7.80
2018-02-25T13:59:59.818Z,7.70
2018-02-25T14:02:27.525Z,7.90
2018-02-25T14:04:55.237Z,7.90
2018-02-25T14:07:23.714Z,7.50
2018-02-25T14:09:52.261Z,7.50
2018-02-25T14:12:19.971Z,7.50
2018-02-25T14:14:48.443Z,7.40
2018-02-25T14:17:16.909Z,7.30
2018-02-25T14:19:44.619Z,7.20
2018-02-25T14:22:12.322Z,7.50
2018-02-25T14:24:40.027Z,7.50
2018-02-25T14:27:07.747Z,7.40
2018-02-25T14:29:35.450Z,7.40
2018-02-25T14:32:03.929Z,7.20
2018-02-25T14:34:32.442Z,7.10
2018-02-25T14:37:00.175Z,7.10
2018-02-25T14:39:28.662Z,5.90
2018-02-25T14:41:57.153Z,6.10
2018-02-25T14:44:24.866Z,6.10
2018-02-25T14:46:52.598Z,6.40
2018-02-25T14:49:20.362Z,6.40
2018-02-25T14:51:48.087Z,6.50
2018-02-25T14:54:16.573Z,6.20
2018-02-25T14:56:45.076Z,6.20
2018-02-25T14:59:12.786Z,6.20
2018-02-25T15:01:40.554Z,6.30
2018-02-25T15:04:08.414Z,6.00
2018-02-25T15:06:36.124Z,6.00
2018-02-25T15:09:04.678Z,6.00
2018-02-25T15:11:32.411Z,6.00
2018-02-25T15:14:00.166Z,5.60
2018-02-25T15:16:27.886Z,5.60
2018-02-25T15:18:56.381Z,5.80
2018-02-25T15:21:24.862Z,6.00
2018-02-25T15:23:53.368Z,6.30
2018-02-25T15:26:21.098Z,6.30
2018-02-25T15:28:49.601Z,8.10
2018-02-25T15:31:17.320Z,8.10
2018-02-25T15:33:45.030Z,9.10
2018-02-25T15:36:12.744Z,9.70
2018-02-25T15:38:40.462Z,9.50
2018-02-25T15:41:08.182Z,9.30
2018-02-25T15:43:35.905Z,9.20
2018-02-25T15:46:03.646Z,8.90
2018-02-25T15:48:31.375Z,8.70
2018-02-25T15:50:59.166Z,8.10
2018-02-25T15:53:26.989Z,7.00
2018-02-25T15:55:55.347Z,6.00
2018-02-25T15:58:23.061Z,5.50
2018-02-25T16:00:50.805Z,4.80
2018-02-25T16:03:20.938Z,4.10
2018-02-25T16:05:50.566Z,3.90
2018-02-25T16:08:23.681Z,3.30
2018-02-25T16:10:53.464Z,3.20
2018-02-25T16:13:23.245Z,3.80
2018-02-25T16:15:51.928Z,3.80
2018-02-25T16:18:19.862Z,3.80
2018-02-25T16:20:47.567Z,3.50
2018-02-25T16:23:15.476Z,3.00
2018-02-25T16:25:46.299Z,2.00
2018-02-25T16:28:14.086Z,1.90
2018-02-25T16:30:41.864Z,1.70
2018-02-25T16:33:09.582Z,1.40
2018-02-25T16:35:37.937Z,1.20
2018-02-25T16:38:07.078Z,0.80
2018-02-25T16:40:35.577Z,0.80
2018-02-25T16:43:03.331Z,0.70
2018-02-25T16:45:31.067Z,0.50
2018-02-25T16:47:58.802Z,0.40
2018-02-25T16:50:26.531Z,0.30
2018-02-25T16:52:54.307Z,0.30
2018-02-25T16:55:22.040Z,0.30
2018-02-25T16:57:50.570Z,0.30
2018-02-25T17:00:18.294Z,0.30
2018-02-25T17:02:46.796Z,-0.10
2018-02-25T17:05:14.526Z,-0.10
2018-02-25T17:07:42.266Z,-0.10
2018-02-25T17:10:15.836Z,-0.20
2018-02-25T17:12:43.558Z,-0.30
2018-02-25T17:15:12.063Z,-0.30
2018-02-25T17:17:39.793Z,-0.40
2018-02-25T17:20:07.994Z,-0.40
2018-02-25T17:22:36.627Z,-0.50
2018-02-25T17:25:04.371Z,-0.60
2018-02-25T17:27:32.113Z,-0.50
2018-02-25T17:29:59.838Z,-0.60
2018-02-25T17:32:27.570Z,-0.80
2018-02-25T17:34:55.297Z,-0.90
2018-02-25T17:37:23.938Z,-0.80
2018-02-25T17:39:51.805Z,-0.80
2018-02-25T17:42:19.676Z,-0.80
2018-02-25T17:44:47.541Z,-0.90
2018-02-25T17:47:15.273Z,-1.00
2018-02-25T17:49:42.994Z,-1.00
2018-02-25T17:52:10.842Z,-1.00
2018-02-25T17:54:38.703Z,-1.00
2018-02-25T17:57:06.570Z,-1.00
2018-02-25T17:59:34.302Z,-0.90
2018-02-25T18:02:02.217Z,-0.90
2018-02-25T18:04:30.069Z,-1.00
2018-02-25T18:06:57.937Z,-0.90
2018-02-25T18:09:25.906Z,-0.90
2018-02-25T18:11:54.422Z,-0.90
2018-02-25T18:14:23.074Z,-0.80
2018-02-25T18:16:50.790Z,-0.80
2018-02-25T18:19:18.706Z,-0.80
2018-02-25T18:21:46.437Z,-0.80
2018-02-25T18:24:14.171Z,-0.90
2018-02-25T18:26:42.821Z,-0.90
2018-02-25T18:29:10.688Z,-0.90
2018-02-25T18:31:38.554Z,-1.00
2018-02-25T18:34:06.422Z,-1.10
2018-02-25T18:36:34.292Z,-1.00
2018-02-25T18:39:02.157Z,-1.00
2018-02-25T18:41:30.026Z,-1.00
2018-02-25T18:43:57.994Z,-1.00
2018-02-25T18:46:26.680Z,-1.10
2018-02-25T18:48:54.548Z,-1.10
2018-02-25T18:51:22.270Z,-1.10
2018-02-25T18:53:49.997Z,-1.20
2018-02-25T18:56:17.731Z,-1.20
2018-02-25T18:58:45.607Z,-1.20
2018-02-25T19:01:13.475Z,-1.30
2018-02-25T19:03:41.242Z,-1.30
2018-02-25T19:06:08.986Z,-1.30
2018-02-25T19:08:36.872Z,-1.20
2018-02-25T19:11:04.742Z,-1.10
2018-02-25T19:13:32.539Z,-1.20
2018-02-25T19:16:01.034Z,-1.40
2018-02-25T19:18:29.547Z,-1.40
2018-02-25T19:20:57.279Z,-1.40
2018-02-25T19:23:25.795Z,-1.40
2018-02-25T19:25:53.526Z,-1.40
2018-02-25T19:28:21.300Z,-1.40
2018-02-25T19:30:49.112Z,-1.40
2018-02-25T19:33:16.980Z,-1.50
2018-02-25T19:36:05.633Z,-1.50
2018-02-25T19:38:39.133Z,-1.40
2018-02-25T19:41:12.530Z,-1.40
2018-02-25T19:43:40.405Z,-1.50
2018-02-25T19:46:08.264Z,-1.60
2018-02-25T19:48:36.137Z,-1.60
2018-02-25T19:51:03.999Z,-1.40
2018-02-25T19:53:31.866Z,-1.20
2018-02-25T19:55:59.733Z,-1.40
2018-02-25T19:58:27.601Z,-1.50
2018-02-25T20:00:55.468Z,-1.50
2018-02-25T20:03:23.335Z,-1.40
2018-02-25T20:05:51.204Z,-1.40
2018-02-25T20:08:19.070Z,-1.50
2018-02-25T20:10:46.938Z,-1.60
2018-02-25T20:13:14.805Z,-1.60
2018-02-25T20:15:42.672Z,-1.60
2018-02-25T20:18:10.540Z,-1.60
2018-02-25T20:20:38.406Z,-1.70
2018-02-25T20:23:06.275Z,-1.80
2018-02-25T20:25:34.141Z,-1.80
2018-02-25T20:28:02.010Z,-1.80
2018-02-25T20:30:29.876Z,-1.80
2018-02-25T20:32:57.746Z,-1.80
2018-02-25T20:35:25.610Z,-1.80
2018-02-25T20:37:53.479Z,-1.80
2018-02-25T20:40:21.347Z,-1.70
2018-02-25T20:42:49.213Z,-1.90
2018-02-25T20:45:17.080Z,-1.90
2018-02-25T20:47:44.947Z,-1.90
2018-02-25T20:50:12.814Z,-2.10
2018-02-25T20:52:40.683Z,-2.20
2018-02-25T20:55:08.550Z,-2.00
2018-02-25T20:57:36.416Z,-2.00
2018-02-25T21:00:04.284Z,-1.90
2018-02-25T21:02:32.152Z,-2.00
2018-02-25T21:05:00.020Z,-2.10
2018-02-25T21:07:27.886Z,-2.20
2018-02-25T21:09:55.754Z,-2.10
2018-02-25T21:12:23.620Z,-2.20
2018-02-25T21:14:51.487Z,-2.30
2018-02-25T21:17:19.355Z,-2.20
2018-02-25T21:19:47.223Z,-2.10
2018-02-25T21:22:15.090Z,-2.20
2018-02-25T21:24:42.957Z,-2.20
2018-02-25T21:27:10.825Z,-2.20
2018-02-25T21:29:38.692Z,-2.20
2018-02-25T21:32:06.560Z,-2.40
2018-02-25T21:34:34.430Z,-2.30
2018-02-25T21:37:02.294Z,-2.40
2018-02-25T21:39:30.160Z,-2.40
2018-02-25T21:41:58.028Z,-2.50
2018-02-25T21:44:25.897Z,-2.40
2018-02-25T21:46:53.764Z,-2.30
2018-02-25T21:49:21.631Z,-2.40
2018-02-25T21:51:49.497Z,-2.50
2018-02-25T21:54:22.930Z,-2.50
2018-02-25T21:56:57.213Z,-2.60
2018-02-25T21:59:30.548Z,-2.60
2018-02-25T22:02:04.778Z,-2.80
2018-02-25T22:04:32.519Z,-2.80
2018-02-25T22:07:00.356Z,-2.80
2018-02-25T22:09:28.226Z,-2.90
2018-02-25T22:11:56.090Z,-3.00
2018-02-25T22:14:23.958Z,-3.00
2018-02-25T22:16:51.825Z,-3.10
2018-02-25T22:19:19.693Z,-3.00
2018-02-25T22:21:47.560Z,-3.10
2018-02-25T22:24:15.427Z,-3.00
2018-02-25T22:26:43.295Z,-2.90
2018-02-25T22:29:11.162Z,-3.00
2018-02-25T22:31:39.030Z,-3.00
2018-02-25T22:34:06.895Z,-3.10
2018-02-25T22:36:34.867Z,-3.10
2018-02-25T22:39:02.604Z,-3.10
2018-02-25T22:41:30.326Z,-3.20
2018-02-25T22:43:58.810Z,-3.10
2018-02-25T22:46:27.463Z,-3.20
2018-02-25T22:48:55.329Z,-3.30
2018-02-25T22:51:23.197Z,-3.20
2018-02-25T22:53:51.064Z,-3.20
2018-02-25T22:56:18.863Z,-3.20
2018-02-25T22:58:47.515Z,-3.20
2018-02-25T23:01:15.230Z,-3.20
2018-02-25T23:03:42.959Z,-3.10
2018-02-25T23:06:10.810Z,-3.20
2018-02-25T23:08:38.677Z,-3.30
2018-02-25T23:11:06.545Z,-3.30
2018-02-25T23:13:34.315Z,-3.50
2018-02-25T23:16:02.025Z,-3.40
2018-02-25T23:18:29.840Z,-3.40
2018-02-25T23:20:57.707Z,-3.50
2018-02-25T23:23:25.574Z,-3.40
2018-02-25T23:25:53.282Z,-3.30
2018-02-25T23:28:21.923Z,-3.30
2018-02-25T23:30:49.661Z,-3.30
2018-02-25T23:33:17.453Z,-3.40
2018-02-25T23:35:45.181Z,-3.40
2018-02-25T23:38:12.984Z,-3.40
2018-02-25T23:40:40.851Z,-3.50
2018-02-25T23:43:08.718Z,-3.60
2018-02-25T23:45:36.585Z,-3.60
2018-02-25T23:48:04.452Z,-3.70
2018-02-25T23:50:32.321Z,-3.70
2018-02-25T23:53:00.047Z,-3.60
2018-02-25T23:55:27.768Z,-3.60
2018-02-25T23:57:55.493Z,-3.60
